createdAt,value
2022-10-11T00:01:34.579Z,67.75
2022-10-11T00:04:03.830Z,68.24
2022-10-11T00:06:32.797Z,68.06
2022-10-11T00:09:03.122Z,68.36
2022-10-11T00:11:32.527Z,68.21
2022-10-11T00:14:01.461Z,68.25
2022-10-11T00:16:30.418Z,68.24
2022-10-11T00:18:59.573Z,68.44
2022-10-11T00:21:28.853Z,68.25
2022-10-11T00:23:58.051Z,68.39
2022-10-11T00:26:28.684Z,68.53
2022-10-11T00:28:57.627Z,68.81
2022-10-11T00:31:26.675Z,68.73
2022-10-11T00:33:56.319Z,68.89
2022-10-11T00:36:25.288Z,69.04
2022-10-11T00:38:54.301Z,69.36
2022-10-11T00:41:24.151Z,69.17
2022-10-11T00:44:10.679Z,69.58
2022-10-11T00:46:41.540Z,69.20
2022-10-11T00:49:19.162Z,69.54
2022-10-11T00:51:53.469Z,69.37
2022-10-11T00:54:26.513Z,69.37
2022-10-11T00:57:01.490Z,69.63
2022-10-11T00:59:36.495Z,69.70
2022-10-11T01:02:07.015Z,69.24
2022-10-11T01:04:36.167Z,69.63
2022-10-11T01:07:05.637Z,70.11
2022-10-11T01:09:36.065Z,70.12
2022-10-11T01:12:06.137Z,70.02
2022-10-11T01:15:08.411Z,70.04
2022-10-11T01:17:45.824Z,70.41
2022-10-11T01:20:36.325Z,70.69
2022-10-11T01:23:17.219Z,70.28
2022-10-11T01:25:59.912Z,70.66
2022-10-11T01:28:43.548Z,70.29
2022-10-11T01:31:24.061Z,70.60
2022-10-11T01:33:56.421Z,70.54
2022-10-11T01:36:33.630Z,70.52
2022-10-11T01:39:07.178Z,70.48
2022-10-11T01:41:40.435Z,70.77
2022-10-11T01:44:12.538Z,70.71
2022-10-11T01:46:43.714Z,71.41
2022-10-11T01:49:13.075Z,71.13
2022-10-11T01:51:47.541Z,71.12
2022-10-11T01:55:03.903Z,71.20
2022-10-11T01:57:59.816Z,71.40
2022-10-11T02:00:35.239Z,71.59
2022-10-11T02:03:20.372Z,71.66
2022-10-11T02:05:57.758Z,71.49
2022-10-11T02:08:34.640Z,71.56
2022-10-11T02:11:10.901Z,71.68
2022-10-11T02:13:45.330Z,71.93
2022-10-11T02:16:20.039Z,71.96
2022-10-11T02:18:55.649Z,71.75
2022-10-11T02:21:25.877Z,71.83
2022-10-11T02:23:57.648Z,72.30
2022-10-11T02:26:29.694Z,72.25
2022-10-11T02:29:02.263Z,72.41
2022-10-11T02:31:35.596Z,72.06
2022-10-11T02:34:13.239Z,72.64
2022-10-11T02:36:51.596Z,73.23
2022-10-11T02:39:27.357Z,73.30
2022-10-11T02:42:03.467Z,73.18
2022-10-11T02:44:38.236Z,72.82
2022-10-11T02:47:08.844Z,73.21
2022-10-11T02:49:39.640Z,73.40
2022-10-11T02:52:08.986Z,73.98
2022-10-11T02:54:37.958Z,75.71
2022-10-11T02:57:07.100Z,75.86
2022-10-11T02:59:36.347Z,74.77
2022-10-11T03:02:05.368Z,74.90
2022-10-11T03:04:34.568Z,75.92
2022-10-11T03:07:04.940Z,78.40
2022-10-11T03:09:33.917Z,78.22
2022-10-11T03:12:03.417Z,77.27
2022-10-11T03:14:32.362Z,79.28
2022-10-11T03:17:23.709Z,79.87
2022-10-11T03:19:50.565Z,80.87
2022-10-11T03:22:20.902Z,82.07
2022-10-11T03:24:49.850Z,82.71
2022-10-11T03:27:19.136Z,84.40
2022-10-11T03:29:48.071Z,83.88
2022-10-11T03:32:17.292Z,81.76
2022-10-11T03:34:46.445Z,82.99
2022-10-11T03:37:15.418Z,82.24
2022-10-11T03:39:46.017Z,81.43
2022-10-11T03:42:15.789Z,82.43
2022-10-11T03:44:44.795Z,81.07
2022-10-11T03:47:13.906Z,80.87
2022-10-11T03:49:43.877Z,80.88
2022-10-11T03:52:13.020Z,80.08
2022-10-11T03:54:41.976Z,79.91
2022-10-11T03:57:12.531Z,81.29
2022-10-11T03:59:41.611Z,81.24
2022-10-11T04:02:11.059Z,80.57
2022-10-11T04:04:40.238Z,80.25
2022-10-11T04:07:09.236Z,80.50
2022-10-11T04:09:38.952Z,79.80
2022-10-11T04:12:08.421Z,80.04
2022-10-11T04:14:38.744Z,80.32
2022-10-11T04:17:07.492Z,80.78
2022-10-11T04:19:37.207Z,80.25
2022-10-11T04:22:06.791Z,80.10
2022-10-11T04:24:35.872Z,79.85
2022-10-11T04:27:05.162Z,80.62
2022-10-11T04:29:34.189Z,80.33
2022-10-11T04:32:04.518Z,80.25
2022-10-11T04:34:33.693Z,79.63
2022-10-11T04:37:02.641Z,80.42
2022-10-11T04:39:31.614Z,79.85
2022-10-11T04:42:00.764Z,79.48
2022-10-11T04:44:29.755Z,79.02
2022-10-11T04:46:59.139Z,78.84
2022-10-11T04:49:29.709Z,79.16
2022-10-11T04:51:58.698Z,78.78
2022-10-11T04:54:28.043Z,78.83
2022-10-11T04:56:57.204Z,78.58
2022-10-11T04:59:26.305Z,78.95
2022-10-11T05:01:55.333Z,78.28
2022-10-11T05:04:24.618Z,78.37
2022-10-11T05:06:55.088Z,78.22
2022-10-11T05:09:24.142Z,78.42
2022-10-11T05:11:53.344Z,78.30
2022-10-11T05:14:22.301Z,78.37
2022-10-11T05:16:51.242Z,78.35
2022-10-11T05:19:20.395Z,78.40
2022-10-11T05:21:49.347Z,78.31
2022-10-11T05:24:19.729Z,78.44
2022-10-11T05:26:48.910Z,78.41
2022-10-11T05:29:17.893Z,78.63
2022-10-11T05:31:46.880Z,79.16
2022-10-11T05:34:16.032Z,78.65
2022-10-11T05:36:44.988Z,78.41
2022-10-11T05:39:14.159Z,79.10
2022-10-11T05:41:44.495Z,78.82
2022-10-11T05:44:13.439Z,78.62
2022-10-11T05:46:42.658Z,78.17
2022-10-11T05:49:11.693Z,77.97
2022-10-11T05:51:41.168Z,77.74
2022-10-11T05:54:10.322Z,77.56
2022-10-11T05:56:39.285Z,77.69
2022-10-11T05:59:09.660Z,77.57
2022-10-11T06:01:38.943Z,77.51
2022-10-11T06:04:08.414Z,77.60
2022-10-11T06:06:37.374Z,77.63
2022-10-11T06:09:06.575Z,78.09
2022-10-11T06:11:35.511Z,77.98
2022-10-11T06:14:04.476Z,78.02
2022-10-11T06:16:35.030Z,78.09
2022-10-11T06:19:04.335Z,78.48
2022-10-11T06:21:33.463Z,78.65
2022-10-11T06:24:02.697Z,77.83
2022-10-11T06:26:31.974Z,77.65
2022-10-11T06:29:01.003Z,77.47
2022-10-11T06:31:30.335Z,77.74
2022-10-11T06:34:01.566Z,76.79
2022-10-11T06:36:30.957Z,77.09
2022-10-11T06:39:01.529Z,77.01
2022-10-11T06:41:31.790Z,76.53
2022-10-11T06:44:01.076Z,76.42
2022-10-11T06:46:32.290Z,76.37
2022-10-11T06:49:02.669Z,76.15
2022-10-11T06:51:32.558Z,76.18
2022-10-11T06:54:02.017Z,76.11
2022-10-11T06:56:32.071Z,75.53
2022-10-11T06:59:01.041Z,75.23
2022-10-11T07:01:30.136Z,75.26
2022-10-11T07:04:03.071Z,74.86
2022-10-11T07:06:32.721Z,74.75
2022-10-11T07:09:02.322Z,74.36
2022-10-11T07:11:31.732Z,74.04
2022-10-11T07:14:04.310Z,73.78
2022-10-11T07:16:33.395Z,73.99
2022-10-11T07:19:05.381Z,73.51
2022-10-11T07:21:35.751Z,73.28
2022-10-11T07:24:05.406Z,72.89
2022-10-11T07:26:38.543Z,73.00
2022-10-11T07:29:09.589Z,73.00
2022-10-11T07:31:39.636Z,72.05
2022-10-11T07:34:10.503Z,71.42
2022-10-11T07:36:39.821Z,71.13
2022-10-11T07:39:09.881Z,71.75
2022-10-11T07:41:44.665Z,71.27
2022-10-11T07:44:15.108Z,71.10
2022-10-11T07:46:44.176Z,69.66
2022-10-11T07:49:14.556Z,70.59
2022-10-11T07:51:43.711Z,70.33
2022-10-11T07:54:12.652Z,70.33
2022-10-11T07:56:41.609Z,70.00
2022-10-11T07:59:12.570Z,68.64
2022-10-11T08:01:41.601Z,68.37
2022-10-11T08:04:11.163Z,67.85
2022-10-11T08:06:42.404Z,66.72
2022-10-11T08:09:12.755Z,66.88
2022-10-11T08:11:42.054Z,66.02
2022-10-11T08:14:11.457Z,65.48
2022-10-11T08:16:41.051Z,65.62
2022-10-11T08:19:11.068Z,65.84
2022-10-11T08:21:41.728Z,64.23
2022-10-11T08:24:13.730Z,65.02
2022-10-11T08:26:43.184Z,64.14
2022-10-11T08:29:12.304Z,63.09
2022-10-11T08:31:41.285Z,62.71
2022-10-11T08:34:10.424Z,63.56
2022-10-11T08:36:40.895Z,63.92
2022-10-11T08:39:10.053Z,63.55
2022-10-11T08:41:43.144Z,63.28
2022-10-11T08:45:05.599Z,62.10
2022-10-11T08:47:34.069Z,61.49
2022-10-11T08:50:04.980Z,61.98
2022-10-11T08:52:46.314Z,62.00
2022-10-11T08:55:22.354Z,62.27
2022-10-11T08:57:55.905Z,61.69
2022-10-11T09:00:29.644Z,62.09
2022-10-11T09:03:09.078Z,62.28
2022-10-11T09:05:50.383Z,61.96
2022-10-11T09:08:28.077Z,61.65
2022-10-11T09:11:07.043Z,60.83
2022-10-11T09:13:55.271Z,61.63
2022-10-11T09:16:37.422Z,60.45
2022-10-11T09:19:39.482Z,61.09
2022-10-11T09:22:17.229Z,60.35
2022-10-11T09:25:06.376Z,58.92
2022-10-11T09:28:03.928Z,60.08
2022-10-11T09:31:10.022Z,58.34
2022-10-11T09:33:43.165Z,58.85
2022-10-11T09:36:20.085Z,59.08
2022-10-11T09:38:55.595Z,58.18
2022-10-11T09:41:37.533Z,58.69
2022-10-11T09:44:08.988Z,58.91
2022-10-11T09:46:42.157Z,57.85
2022-10-11T09:49:15.393Z,56.65
2022-10-11T09:51:49.274Z,56.43
2022-10-11T09:54:20.728Z,55.56
2022-10-11T09:56:51.363Z,55.76
2022-10-11T09:59:28.500Z,55.49
2022-10-11T10:02:22.669Z,56.21
2022-10-11T10:05:20.177Z,56.06
2022-10-11T10:08:22.390Z,55.92
2022-10-11T10:11:00.793Z,55.52
2022-10-11T10:13:44.862Z,55.35
2022-10-11T10:16:26.163Z,54.16
2022-10-11T10:18:58.213Z,55.64
2022-10-11T10:21:33.207Z,55.67
2022-10-11T10:24:06.210Z,55.22
2022-10-11T10:26:35.763Z,55.70
2022-10-11T10:29:20.151Z,53.92
2022-10-11T10:34:56.573Z,54.92
2022-10-11T10:37:30.570Z,53.11
2022-10-11T10:40:13.407Z,50.61
2022-10-11T10:42:42.533Z,52.57
2022-10-11T10:45:21.873Z,51.21
2022-10-11T10:48:14.189Z,52.58
2022-10-11T10:50:51.195Z,51.11
2022-10-11T10:53:28.773Z,52.67
2022-10-11T10:56:07.426Z,52.44
2022-10-11T10:58:57.525Z,53.10
2022-10-11T11:01:32.056Z,49.84
2022-10-11T11:04:08.059Z,49.38
2022-10-11T11:06:46.550Z,48.41
2022-10-11T11:09:34.144Z,49.20
2022-10-11T11:12:15.786Z,48.92
2022-10-11T11:14:55.028Z,48.50
2022-10-11T11:17:37.000Z,48.96
2022-10-11T11:20:22.629Z,48.51
2022-10-11T11:22:58.815Z,49.37
2022-10-11T11:25:40.329Z,49.96
2022-10-11T11:28:36.294Z,50.31
2022-10-11T11:31:12.659Z,50.71
2022-10-11T11:33:54.624Z,51.41
2022-10-11T11:36:32.916Z,50.39
2022-10-11T11:39:05.504Z,51.03
2022-10-11T11:41:40.094Z,50.21
2022-10-11T11:44:17.161Z,50.38
2022-10-11T11:46:52.048Z,49.74
2022-10-11T11:49:29.894Z,49.89
2022-10-11T11:52:00.144Z,49.99
2022-10-11T11:54:47.626Z,49.99
2022-10-11T11:57:27.224Z,49.95
2022-10-11T12:00:02.119Z,50.82
2022-10-11T12:02:47.050Z,51.53
2022-10-11T12:05:21.117Z,51.82
2022-10-11T12:08:02.031Z,52.25
2022-10-11T12:10:36.780Z,52.36
2022-10-11T12:13:22.166Z,51.87
2022-10-11T12:16:10.271Z,52.06
2022-10-11T12:18:51.785Z,52.27
2022-10-11T12:21:31.147Z,51.41
2022-10-11T12:24:01.086Z,50.74
2022-10-11T12:26:43.528Z,50.38
2022-10-11T12:29:48.032Z,50.58
2022-10-11T12:33:06.279Z,50.23
2022-10-11T12:36:33.540Z,50.13
2022-10-11T12:40:58.891Z,50.08
2022-10-11T12:43:37.331Z,49.46
2022-10-11T12:46:39.461Z,49.42
2022-10-11T12:49:42.470Z,48.56
2022-10-11T12:52:33.697Z,47.87
2022-10-11T12:55:26.565Z,48.29
2022-10-11T12:58:29.142Z,48.44
2022-10-11T13:01:11.557Z,47.08
2022-10-11T13:03:43.579Z,47.67
2022-10-11T13:06:16.795Z,46.38
2022-10-11T13:08:50.203Z,48.72
2022-10-11T13:11:26.237Z,47.60
2022-10-11T13:14:11.665Z,49.07
2022-10-11T13:16:52.205Z,49.91
2022-10-11T13:19:24.311Z,50.79
2022-10-11T13:21:55.805Z,51.79
2022-10-11T13:24:26.286Z,52.19
2022-10-11T13:27:05.401Z,53.14
2022-10-11T13:29:37.233Z,53.63
2022-10-11T13:32:11.716Z,53.83
2022-10-11T13:34:42.955Z,54.43
2022-10-11T13:37:19.223Z,54.03
2022-10-11T13:39:50.062Z,54.16
2022-10-11T13:42:26.982Z,54.21
2022-10-11T13:44:56.726Z,54.20
2022-10-11T13:47:29.033Z,54.01
2022-10-11T13:50:10.889Z,54.11
2022-10-11T13:53:00.538Z,54.39
2022-10-11T13:55:35.348Z,54.74
2022-10-11T13:58:18.723Z,54.97
2022-10-11T14:00:56.118Z,56.20
2022-10-11T14:03:29.814Z,55.79
2022-10-11T14:06:01.382Z,56.11
2022-10-11T14:08:35.531Z,56.08
2022-10-11T14:11:06.514Z,56.12
2022-10-11T14:13:39.667Z,56.05
2022-10-11T14:16:10.565Z,56.48
2022-10-11T14:18:48.368Z,57.23
2022-10-11T14:21:48.509Z,58.08
2022-10-11T14:24:18.293Z,58.43
2022-10-11T14:26:48.933Z,58.54
2022-10-11T14:29:24.762Z,58.98
2022-10-11T14:31:56.423Z,60.24
2022-10-11T14:34:27.213Z,60.31
2022-10-11T14:36:57.759Z,59.99
2022-10-11T14:39:28.659Z,60.19
2022-10-11T14:41:57.729Z,60.79
2022-10-11T14:44:26.877Z,61.14
2022-10-11T14:46:56.534Z,61.54
2022-10-11T14:49:27.627Z,61.12
2022-10-11T14:52:00.430Z,61.27
2022-10-11T14:54:30.953Z,61.41
2022-10-11T14:57:02.245Z,61.75
2022-10-11T14:59:36.352Z,64.05
2022-10-11T15:02:07.332Z,63.25
2022-10-11T15:04:36.396Z,63.05
2022-10-11T15:07:07.002Z,63.39
2022-10-11T15:09:36.014Z,62.94
2022-10-11T15:12:05.584Z,63.98
2022-10-11T15:14:34.541Z,64.74
2022-10-11T15:17:03.547Z,65.83
2022-10-11T15:19:32.729Z,65.01
2022-10-11T15:22:04.329Z,64.81
2022-10-11T15:24:34.880Z,64.69
2022-10-11T15:27:03.852Z,64.42
2022-10-11T15:29:32.802Z,64.55
2022-10-11T15:32:02.007Z,65.95
2022-10-11T15:34:30.980Z,65.28
2022-10-11T15:36:59.975Z,65.21
2022-10-11T15:39:32.523Z,65.48
2022-10-11T15:42:02.879Z,65.33
2022-10-11T15:44:32.116Z,66.19
2022-10-11T15:47:01.117Z,65.98
2022-10-11T15:49:30.342Z,65.57
2022-10-11T15:51:59.286Z,65.70
2022-10-11T15:54:28.235Z,65.97
2022-10-11T15:56:57.408Z,66.17
2022-10-11T15:59:27.796Z,65.79
2022-10-11T16:01:57.141Z,65.69
2022-10-11T16:04:26.168Z,65.62
2022-10-11T16:06:55.143Z,65.79
2022-10-11T16:09:24.493Z,65.88
2022-10-11T16:11:53.464Z,65.87
2022-10-11T16:14:22.631Z,65.92
2022-10-11T16:16:52.974Z,65.94
2022-10-11T16:19:22.175Z,66.08
2022-10-11T16:21:51.123Z,66.26
2022-10-11T16:24:20.296Z,66.26
2022-10-11T16:26:49.253Z,66.31
2022-10-11T16:29:18.421Z,66.54
2022-10-11T16:31:47.378Z,66.54
2022-10-11T16:34:17.927Z,66.32
2022-10-11T16:36:46.874Z,66.58
2022-10-11T16:39:18.253Z,66.28
2022-10-11T16:41:48.021Z,66.76
2022-10-11T16:44:18.771Z,66.79
2022-10-11T16:46:49.428Z,67.14
2022-10-11T16:49:22.557Z,67.27
2022-10-11T16:51:52.866Z,67.47
2022-10-11T16:54:22.337Z,67.62
2022-10-11T16:56:51.600Z,67.33
2022-10-11T16:59:21.496Z,67.70
2022-10-11T17:01:50.793Z,67.77
2022-10-11T17:04:21.365Z,67.92
2022-10-11T17:06:50.101Z,67.85
2022-10-11T17:09:19.562Z,67.68
2022-10-11T17:11:48.589Z,67.95
2022-10-11T17:14:18.744Z,68.04
2022-10-11T17:16:47.720Z,68.02
2022-10-11T17:19:17.557Z,67.94
2022-10-11T17:21:47.921Z,68.60
2022-10-11T17:24:17.096Z,68.42
2022-10-11T17:26:46.067Z,68.36
2022-10-11T17:29:16.973Z,68.56
2022-10-11T17:31:49.181Z,68.60
2022-10-11T17:34:19.099Z,68.63
2022-10-11T17:36:49.489Z,68.98
2022-10-11T17:39:21.407Z,69.03
2022-10-11T17:41:51.122Z,69.44
2022-10-11T17:44:21.761Z,69.53
2022-10-11T17:46:51.249Z,69.10
2022-10-11T17:49:20.436Z,69.63
2022-10-11T17:51:50.779Z,69.18
2022-10-11T17:54:19.975Z,69.41
2022-10-11T17:56:49.542Z,69.02
2022-10-11T17:59:36.908Z,69.02
2022-10-11T18:02:07.597Z,69.49
2022-10-11T18:04:37.511Z,69.59
2022-10-11T18:07:07.906Z,69.17
2022-10-11T18:09:37.160Z,69.52
2022-10-11T18:12:06.662Z,69.42
2022-10-11T18:14:35.872Z,69.38
2022-10-11T18:17:05.380Z,69.70
2022-10-11T18:19:34.490Z,69.91
2022-10-11T18:22:41.063Z,70.02
2022-10-11T18:25:06.237Z,70.00
2022-10-11T18:27:35.850Z,70.04
2022-10-11T18:30:05.428Z,70.36
2022-10-11T18:32:35.036Z,70.28
2022-10-11T18:35:04.557Z,70.20
2022-10-11T18:37:35.195Z,69.98
2022-10-11T18:40:04.831Z,70.29
2022-10-11T18:42:34.121Z,70.27
2022-10-11T18:45:03.237Z,70.34
2022-10-11T18:47:32.440Z,70.46
2022-10-11T18:50:01.736Z,70.26
2022-10-11T18:52:30.852Z,70.46
2022-10-11T18:55:02.850Z,70.35
2022-10-11T18:57:32.488Z,70.53
2022-10-11T19:00:11.656Z,70.54
2022-10-11T19:02:51.052Z,70.94
2022-10-11T19:05:20.339Z,70.80
2022-10-11T19:07:49.376Z,71.07
2022-10-11T19:10:20.243Z,71.12
2022-10-11T19:12:49.273Z,71.51
2022-10-11T19:15:23.169Z,71.06
2022-10-11T19:17:54.321Z,71.63
2022-10-11T19:20:23.578Z,72.21
2022-10-11T19:22:52.602Z,72.09
2022-10-11T19:25:23.643Z,72.25
2022-10-11T19:27:52.909Z,71.65
2022-10-11T19:30:24.661Z,71.79
2022-10-11T19:32:54.399Z,71.88
2022-10-11T19:35:23.384Z,72.21
2022-10-11T19:37:52.593Z,71.96
2022-10-11T19:40:23.070Z,72.26
2022-10-11T19:42:52.105Z,71.95
2022-10-11T19:45:21.406Z,72.44
2022-10-11T19:47:50.367Z,72.18
2022-10-11T19:50:19.460Z,72.16
2022-10-11T19:52:48.646Z,72.23
2022-10-11T19:55:17.719Z,72.24
2022-10-11T19:57:48.297Z,72.42
2022-10-11T20:00:17.500Z,72.68
2022-10-11T20:02:46.673Z,72.24
2022-10-11T20:05:15.768Z,72.27
2022-10-11T20:07:45.111Z,71.95
2022-10-11T20:10:14.102Z,71.83
2022-10-11T20:12:45.901Z,71.84
2022-10-11T20:15:16.611Z,71.90
2022-10-11T20:17:51.798Z,71.85
2022-10-11T20:20:20.873Z,71.70
2022-10-11T20:22:50.041Z,72.09
2022-10-11T20:25:19.051Z,71.84
2022-10-11T20:27:48.276Z,71.82
2022-10-11T20:30:18.852Z,71.96
2022-10-11T20:32:48.010Z,72.02
2022-10-11T20:35:17.197Z,71.87
2022-10-11T20:37:46.370Z,71.97
2022-10-11T20:40:16.380Z,71.92
2022-10-11T20:42:45.296Z,71.82
2022-10-11T20:45:14.278Z,71.93
2022-10-11T20:47:44.599Z,71.90
2022-10-11T20:50:13.763Z,71.99
2022-10-11T20:52:43.281Z,71.85
2022-10-11T20:55:12.623Z,72.35
2022-10-11T20:57:41.858Z,72.39
2022-10-11T21:00:12.214Z,72.42
2022-10-11T21:02:41.183Z,72.26
2022-10-11T21:05:11.975Z,72.45
2022-10-11T21:07:42.443Z,72.53
2022-10-11T21:10:11.755Z,72.50
2022-10-11T21:12:40.720Z,72.74
2022-10-11T21:15:10.640Z,72.41
2022-10-11T21:17:39.731Z,72.78
2022-10-11T21:20:11.343Z,72.90
2022-10-11T21:22:40.431Z,72.83
2022-10-11T21:25:09.711Z,72.87
2022-10-11T21:27:38.835Z,73.14
2022-10-11T21:30:08.858Z,73.04
2022-10-11T21:32:38.413Z,72.79
2022-10-11T21:35:07.643Z,73.19
2022-10-11T21:37:38.076Z,73.34
2022-10-11T21:40:08.004Z,73.32
2022-10-11T21:42:37.204Z,73.59
2022-10-11T21:45:06.935Z,73.12
2022-10-11T21:47:39.005Z,73.20
2022-10-11T21:50:08.953Z,73.53
2022-10-11T21:52:39.496Z,73.58
2022-10-11T21:55:08.379Z,73.86
2022-10-11T21:57:37.533Z,73.57
2022-10-11T22:00:08.854Z,73.70
2022-10-11T22:02:42.454Z,73.80
2022-10-11T22:05:11.387Z,74.04
2022-10-11T22:07:41.696Z,74.66
2022-10-11T22:10:10.922Z,74.82
2022-10-11T22:12:39.948Z,74.58
2022-10-11T22:15:10.028Z,74.47
2022-10-11T22:17:38.937Z,74.79
2022-10-11T22:20:08.807Z,74.96
2022-10-11T22:22:38.081Z,75.11
2022-10-11T22:25:10.094Z,74.93
2022-10-11T22:27:39.050Z,75.23
2022-10-11T22:30:09.618Z,75.46
2022-10-11T22:32:38.600Z,75.38
2022-10-11T22:35:08.211Z,75.54
2022-10-11T22:37:37.671Z,75.46
2022-10-11T22:40:09.544Z,76.04
2022-10-11T22:42:38.716Z,75.74
2022-10-11T22:45:08.351Z,75.21
2022-10-11T22:47:37.690Z,75.31
2022-10-11T22:50:07.762Z,74.97
2022-10-11T22:52:36.836Z,74.83
2022-10-11T22:55:06.278Z,74.72
2022-10-11T22:57:37.106Z,74.51
2022-10-11T23:00:07.771Z,74.78
2022-10-11T23:02:36.937Z,75.05
2022-10-11T23:05:06.169Z,74.84
2022-10-11T23:07:35.382Z,75.07
2022-10-11T23:10:05.269Z,75.43
2022-10-11T23:12:35.914Z,75.31
2022-10-11T23:15:05.469Z,75.30
2022-10-11T23:17:34.691Z,75.17
2022-10-11T23:20:04.942Z,75.23
2022-10-11T23:22:34.146Z,75.53
2022-10-11T23:25:03.119Z,75.36
2022-10-11T23:27:32.091Z,75.23
2022-10-11T23:30:02.813Z,75.43
2022-10-11T23:32:31.562Z,75.18
2022-10-11T23:35:00.705Z,75.38
2022-10-11T23:37:29.692Z,75.26
2022-10-11T23:39:58.668Z,75.69
2022-10-11T23:42:27.806Z,75.09
2022-10-11T23:44:56.727Z,74.93
2022-10-11T23:47:27.029Z,75.15
2022-10-11T23:49:56.171Z,75.27
2022-10-11T23:52:25.375Z,75.25
2022-10-11T23:54:55.690Z,75.37
2022-10-11T23:57:24.846Z,75.64
2022-10-11T23:59:53.803Z,75.89
